PWSweather.com
Personal Weather Stations
Station Observations
KAZTUCSO57
Countryside Manor, Tucson, AZ 85742

Countryside ManorTucson, AZ 85742

Lat: 32.3692, Lon: -111.066

Elevation: 2307

Station Type: Davis VP Pro+ 6163

http://frogville.us

Latest ConditionsUpdated 11:50:00 AM MST Tuesday, Jan 27, 2015
Currently Today's Max Today's Min Today's Average
Temperature 71.3°F21.8°C 71.3°F21.8°C 51.4°F10.8°C 55.5°F13.1°C
Dew Point 48.9°F9.4°C 52.6°F11.4°C 40.7°F4.8°C 45.3°F7.4°C
Winds 0.6 mph SSE1.0 kmh SSE 2.1 mph SW3.4 kmh SW - 0.6 mph 1.0 kmh
Wind Gusts 1.0 mph1.6 kmh 5.0 mph8.0 kmh - -
Humidity 45% 84% 45% 69%
Pressure 30.21 in1023.0 mb 30.24 in1024.0 mb 30.17 in1021.7 mb -
Precipitation - 0.03 in0.8 mm - -
Hour Temp Dew Point Humidity Winds Wind Gusts Pressure Precip Precip Rate Daily Precip Total
11:50 AM 71.3°F21.8°C 48.9°F9.4°C 45% 0.6 mph SSE1.0 kmh SSE 1.0 mph1.6 kmh 30.21 in1023.0 mb 0.00 in0.0 mm 0.00 in/hr0.0 mm/hr 0.03 in0.8 mm
11:40 AM 70.9°F21.6°C 48.5°F9.2°C 45% 0.9 mph SW1.4 kmh SW 2.0 mph3.2 kmh 30.21 in1023.0 mb 0.00 in0.0 mm 0.00 in/hr0.0 mm/hr 0.03 in0.8 mm
11:30 AM 70.4°F21.3°C 49.8°F9.9°C 48% 1.3 mph NE2.1 kmh NE 3.0 mph4.8 kmh 30.22 in1023.4 mb 0.00 in0.0 mm 0.00 in/hr0.0 mm/hr 0.03 in0.8 mm
11:20 AM 69.4°F20.8°C 51.5°F10.8°C 53% 0.5 mph E0.8 kmh E 1.0 mph1.6 kmh 30.22 in1023.4 mb 0.00 in0.0 mm 0.00 in/hr0.0 mm/hr 0.03 in0.8 mm
11:10 AM 68.9°F20.5°C 51.1°F10.6°C 53% 0.8 mph E1.3 kmh E 3.0 mph4.8 kmh 30.22 in1023.4 mb 0.00 in0.0 mm 0.00 in/hr0.0 mm/hr 0.03 in0.8 mm
11:00 AM 69.0°F20.6°C 52.6°F11.4°C 56% 2.1 mph SW3.4 kmh SW 4.0 mph6.4 kmh 30.23 in1023.7 mb 0.00 in0.0 mm 0.00 in/hr0.0 mm/hr 0.03 in0.8 mm
10:50 AM 68.5°F20.3°C 51.7°F10.9°C 55% 0.9 mph NE1.4 kmh NE 4.0 mph6.4 kmh 30.23 in1023.7 mb 0.01 in0.3 mm 0.06 in/hr1.5 mm/hr 0.03 in0.8 mm
10:40 AM 67.4°F19.7°C 51.2°F10.7°C 56% 1.4 mph ESE2.3 kmh ESE 3.0 mph4.8 kmh 30.23 in1023.7 mb 0.00 in0.0 mm 0.00 in/hr0.0 mm/hr 0.02 in0.5 mm
10:30 AM 66.5°F19.2°C 51.3°F10.7°C 58% 1.0 mph ESE1.6 kmh ESE 2.0 mph3.2 kmh 30.23 in1023.7 mb 0.00 in0.0 mm 0.00 in/hr0.0 mm/hr 0.02 in0.5 mm
10:20 AM 65.6°F18.7°C 51.8°F11.0°C 61% 1.2 mph E1.9 kmh E 5.0 mph8.0 kmh 30.23 in1023.7 mb 0.00 in0.0 mm 0.00 in/hr0.0 mm/hr 0.02 in0.5 mm
10:10 AM 64.1°F17.8°C 51.7°F10.9°C 64% 0.5 mph ENE0.8 kmh ENE 2.0 mph3.2 kmh 30.23 in1023.7 mb 0.00 in0.0 mm 0.00 in/hr0.0 mm/hr 0.02 in0.5 mm
10:00 AM 62.7°F17.1°C 51.1°F10.6°C 66% 1.2 mph SSE1.9 kmh SSE 1.0 mph1.6 kmh 30.23 in1023.7 mb 0.00 in0.0 mm 0.00 in/hr0.0 mm/hr 0.02 in0.5 mm
09:50 AM 61.2°F16.2°C 51.4°F10.8°C 70% 0.6 mph ESE1.0 kmh ESE 2.0 mph3.2 kmh 30.23 in1023.7 mb 0.00 in0.0 mm 0.00 in/hr0.0 mm/hr 0.02 in0.5 mm
09:40 AM 60.0°F15.6°C 51.3°F10.7°C 73% 0.7 mph ESE1.1 kmh ESE 2.0 mph3.2 kmh 30.23 in1023.7 mb 0.00 in0.0 mm 0.00 in/hr0.0 mm/hr 0.02 in0.5 mm
09:30 AM 58.8°F14.9°C 51.2°F10.7°C 76% 0.9 mph ESE1.4 kmh ESE 2.0 mph3.2 kmh 30.23 in1023.7 mb 0.00 in0.0 mm 0.00 in/hr0.0 mm/hr 0.02 in0.5 mm
09:20 AM 57.7°F14.3°C 51.2°F10.7°C 79% 1.7 mph E2.7 kmh E 2.0 mph3.2 kmh 30.23 in1023.7 mb 0.00 in0.0 mm 0.00 in/hr0.0 mm/hr 0.02 in0.5 mm
09:10 AM 56.5°F13.6°C 51.1°F10.6°C 82% 0.3 mph SE0.5 kmh SE 2.0 mph3.2 kmh 30.23 in1023.7 mb 0.00 in0.0 mm 0.00 in/hr0.0 mm/hr 0.02 in0.5 mm
09:00 AM 55.2°F12.9°C 50.5°F10.3°C 84% 0.7 mph E1.1 kmh E 2.0 mph3.2 kmh 30.23 in1023.7 mb 0.00 in0.0 mm 0.00 in/hr0.0 mm/hr 0.02 in0.5 mm
08:50 AM 53.9°F12.2°C 49.2°F9.6°C 84% 0.1 mph E0.2 kmh E -- 30.24 in1024.0 mb 0.00 in0.0 mm 0.00 in/hr0.0 mm/hr 0.02 in0.5 mm
08:40 AM 53.3°F11.8°C 48.3°F9.1°C 83% Calm Calm -- 30.23 in1023.7 mb 0.00 in0.0 mm 0.00 in/hr0.0 mm/hr 0.02 in0.5 mm
08:30 AM 53.0°F11.7°C 47.7°F8.7°C 82% 0.1 mph ENE0.2 kmh ENE -- 30.23 in1023.7 mb 0.00 in0.0 mm 0.00 in/hr0.0 mm/hr 0.02 in0.5 mm
08:20 AM 52.9°F11.6°C 47.2°F8.4°C 81% Calm Calm 1.0 mph1.6 kmh 30.23 in1023.7 mb 0.00 in0.0 mm 0.00 in/hr0.0 mm/hr 0.02 in0.5 mm
08:10 AM 52.8°F11.6°C 46.8°F8.2°C 80% 1.3 mph ENE2.1 kmh ENE 2.0 mph3.2 kmh 30.23 in1023.7 mb 0.00 in0.0 mm 0.00 in/hr0.0 mm/hr 0.02 in0.5 mm
08:00 AM 52.4°F11.3°C 45.7°F7.6°C 78% 1.8 mph E2.9 kmh E 4.0 mph6.4 kmh 30.23 in1023.7 mb 0.00 in0.0 mm 0.00 in/hr0.0 mm/hr 0.02 in0.5 mm
07:50 AM 52.0°F11.1°C 45.7°F7.6°C 79% 0.5 mph S0.8 kmh S 1.0 mph1.6 kmh 30.22 in1023.4 mb 0.00 in0.0 mm 0.00 in/hr0.0 mm/hr 0.02 in0.5 mm
07:40 AM 52.0°F11.1°C 45.7°F7.6°C 79% 1.0 mph NE1.6 kmh NE 3.0 mph4.8 kmh 30.22 in1023.4 mb 0.01 in0.3 mm 0.06 in/hr1.5 mm/hr 0.02 in0.5 mm
07:30 AM 52.3°F11.3°C 46.3°F7.9°C 80% 0.3 mph NE0.5 kmh NE 1.0 mph1.6 kmh 30.21 in1023.0 mb 0.01 in0.3 mm 0.06 in/hr1.5 mm/hr 0.02 in0.5 mm
07:20 AM 52.4°F11.3°C 46.7°F8.2°C 81% 0.1 mph NE0.2 kmh NE 1.0 mph1.6 kmh 30.21 in1023.0 mb 0.00 in0.0 mm 0.00 in/hr0.0 mm/hr 0.01 in0.3 mm
07:10 AM 52.4°F11.3°C 47.1°F8.4°C 82% Calm Calm -- 30.20 in1022.7 mb 0.00 in0.0 mm 0.00 in/hr0.0 mm/hr 0.01 in0.3 mm
07:00 AM 52.3°F11.3°C 47.0°F8.3°C 82% Calm Calm -- 30.20 in1022.7 mb 0.00 in0.0 mm 0.00 in/hr0.0 mm/hr 0.01 in0.3 mm
06:50 AM 52.1°F11.2°C 46.4°F8.0°C 81% Calm Calm -- 30.21 in1023.0 mb 0.00 in0.0 mm 0.00 in/hr0.0 mm/hr 0.01 in0.3 mm
06:40 AM 51.8°F11.0°C 46.2°F7.9°C 81% 0.7 mph NE1.1 kmh NE 2.0 mph3.2 kmh 30.20 in1022.7 mb 0.00 in0.0 mm 0.00 in/hr0.0 mm/hr 0.01 in0.3 mm
06:30 AM 51.6°F10.9°C 46.3°F7.9°C 82% 1.8 mph NE2.9 kmh NE 3.0 mph4.8 kmh 30.20 in1022.7 mb 0.00 in0.0 mm 0.00 in/hr0.0 mm/hr 0.01 in0.3 mm
06:20 AM 51.7°F10.9°C 45.7°F7.6°C 80% 0.9 mph E1.4 kmh E 1.0 mph1.6 kmh 30.20 in1022.7 mb 0.00 in0.0 mm 0.00 in/hr0.0 mm/hr 0.01 in0.3 mm
06:10 AM 52.3°F11.3°C 45.6°F7.6°C 78% 0.3 mph NE0.5 kmh NE 2.0 mph3.2 kmh 30.20 in1022.7 mb 0.00 in0.0 mm 0.00 in/hr0.0 mm/hr 0.01 in0.3 mm
06:00 AM 52.6°F11.4°C 44.5°F6.9°C 74% 1.4 mph NE2.3 kmh NE 3.0 mph4.8 kmh 30.19 in1022.4 mb 0.01 in0.3 mm 0.01 in/hr0.3 mm/hr 0.01 in0.3 mm
05:50 AM 52.1°F11.2°C 41.5°F5.3°C 67% Calm Calm 1.0 mph1.6 kmh 30.19 in1022.4 mb 0.00 in0.0 mm 0.00 in/hr0.0 mm/hr 0.00 in0.0 mm
05:40 AM 52.1°F11.2°C 41.5°F5.3°C 67% Calm Calm -- 30.18 in1022.0 mb 0.00 in0.0 mm 0.00 in/hr0.0 mm/hr 0.00 in0.0 mm
05:30 AM 51.8°F11.0°C 41.6°F5.3°C 68% 0.4 mph E0.6 kmh E 2.0 mph3.2 kmh 30.18 in1022.0 mb 0.00 in0.0 mm 0.00 in/hr0.0 mm/hr 0.00 in0.0 mm
05:20 AM 51.6°F10.9°C 41.3°F5.2°C 68% Calm Calm -- 30.18 in1022.0 mb 0.00 in0.0 mm 0.00 in/hr0.0 mm/hr 0.00 in0.0 mm
05:10 AM 51.4°F10.8°C 41.2°F5.1°C 68% 0.4 mph SE0.6 kmh SE 1.0 mph1.6 kmh 30.18 in1022.0 mb 0.00 in0.0 mm 0.00 in/hr0.0 mm/hr 0.00 in0.0 mm
05:00 AM 51.5°F10.8°C 40.9°F4.9°C 67% Calm Calm -- 30.17 in1021.7 mb 0.00 in0.0 mm 0.00 in/hr0.0 mm/hr 0.00 in0.0 mm
04:50 AM 51.7°F10.9°C 40.7°F4.8°C 66% Calm Calm -- 30.17 in1021.7 mb 0.00 in0.0 mm 0.00 in/hr0.0 mm/hr 0.00 in0.0 mm
04:40 AM 52.0°F11.1°C 41.0°F5.0°C 66% Calm Calm -- 30.17 in1021.7 mb 0.00 in0.0 mm 0.00 in/hr0.0 mm/hr 0.00 in0.0 mm
04:30 AM 52.4°F11.3°C 41.0°F5.0°C 65% Calm Calm -- 30.17 in1021.7 mb 0.00 in0.0 mm 0.00 in/hr0.0 mm/hr 0.00 in0.0 mm
04:20 AM 52.7°F11.5°C 41.3°F5.2°C 65% Calm Calm -- 30.18 in1022.0 mb 0.00 in0.0 mm 0.00 in/hr0.0 mm/hr 0.00 in0.0 mm
04:10 AM 52.8°F11.6°C 41.4°F5.2°C 65% 0.3 mph NE0.5 kmh NE 1.0 mph1.6 kmh 30.18 in1022.0 mb 0.00 in0.0 mm 0.00 in/hr0.0 mm/hr 0.00 in0.0 mm
04:00 AM 52.9°F11.6°C 41.4°F5.2°C 65% 0.2 mph NE0.3 kmh NE 1.0 mph1.6 kmh 30.17 in1021.7 mb 0.00 in0.0 mm 0.00 in/hr0.0 mm/hr 0.00 in0.0 mm
03:50 AM 52.8°F11.6°C 41.4°F5.2°C 65% 0.6 mph NE1.0 kmh NE -- 30.18 in1022.0 mb 0.00 in0.0 mm 0.00 in/hr0.0 mm/hr 0.00 in0.0 mm
03:40 AM 52.7°F11.5°C 41.7°F5.4°C 66% 1.3 mph NE2.1 kmh NE 2.0 mph3.2 kmh 30.18 in1022.0 mb 0.00 in0.0 mm 0.00 in/hr0.0 mm/hr 0.00 in0.0 mm
03:30 AM 52.5°F11.4°C 41.5°F5.3°C 66% 0.6 mph ENE1.0 kmh ENE 2.0 mph3.2 kmh 30.18 in1022.0 mb 0.00 in0.0 mm 0.00 in/hr0.0 mm/hr 0.00 in0.0 mm
03:20 AM 52.3°F11.3°C 41.7°F5.4°C 67% 1.0 mph NNE1.6 kmh NNE 2.0 mph3.2 kmh 30.18 in1022.0 mb 0.00 in0.0 mm 0.00 in/hr0.0 mm/hr 0.00 in0.0 mm
03:10 AM 52.0°F11.1°C 41.4°F5.2°C 67% 0.9 mph NE1.4 kmh NE 1.0 mph1.6 kmh 30.18 in1022.0 mb 0.00 in0.0 mm 0.00 in/hr0.0 mm/hr 0.00 in0.0 mm
03:00 AM 51.7°F10.9°C 41.5°F5.3°C 68% 0.4 mph NNE0.6 kmh NNE 2.0 mph3.2 kmh 30.18 in1022.0 mb 0.00 in0.0 mm 0.00 in/hr0.0 mm/hr 0.00 in0.0 mm
02:50 AM 51.7°F10.9°C 41.5°F5.3°C 68% 1.7 mph NE2.7 kmh NE 3.0 mph4.8 kmh 30.18 in1022.0 mb 0.00 in0.0 mm 0.00 in/hr0.0 mm/hr 0.00 in0.0 mm
02:40 AM 51.8°F11.0°C 41.6°F5.3°C 68% 0.3 mph NE0.5 kmh NE 3.0 mph4.8 kmh 30.18 in1022.0 mb 0.00 in0.0 mm 0.00 in/hr0.0 mm/hr 0.00 in0.0 mm
02:30 AM 51.7°F10.9°C 41.9°F5.5°C 69% 0.4 mph NE0.6 kmh NE 1.0 mph1.6 kmh 30.18 in1022.0 mb 0.00 in0.0 mm 0.00 in/hr0.0 mm/hr 0.00 in0.0 mm
02:20 AM 51.6°F10.9°C 41.8°F5.4°C 69% 0.2 mph NE0.3 kmh NE 1.0 mph1.6 kmh 30.18 in1022.0 mb 0.00 in0.0 mm 0.00 in/hr0.0 mm/hr 0.00 in0.0 mm
02:10 AM 51.7°F10.9°C 41.9°F5.5°C 69% 0.1 mph NE0.2 kmh NE 1.0 mph1.6 kmh 30.17 in1021.7 mb 0.00 in0.0 mm 0.00 in/hr0.0 mm/hr 0.00 in0.0 mm
02:00 AM 51.9°F11.1°C 42.0°F5.6°C 69% 0.1 mph NE0.2 kmh NE 1.0 mph1.6 kmh 30.17 in1021.7 mb 0.00 in0.0 mm 0.00 in/hr0.0 mm/hr 0.00 in0.0 mm
01:50 AM 52.4°F11.3°C 42.1°F5.6°C 68% 0.7 mph NNE1.1 kmh NNE 2.0 mph3.2 kmh 30.17 in1021.7 mb 0.00 in0.0 mm 0.00 in/hr0.0 mm/hr 0.00 in0.0 mm
01:40 AM 52.7°F11.5°C 42.4°F5.8°C 68% 0.3 mph NE0.5 kmh NE 1.0 mph1.6 kmh 30.17 in1021.7 mb 0.00 in0.0 mm 0.00 in/hr0.0 mm/hr 0.00 in0.0 mm
01:30 AM 53.2°F11.8°C 42.5°F5.8°C 67% 0.5 mph NE0.8 kmh NE 2.0 mph3.2 kmh 30.17 in1021.7 mb 0.00 in0.0 mm 0.00 in/hr0.0 mm/hr 0.00 in0.0 mm
01:20 AM 53.6°F12.0°C 42.9°F6.1°C 67% Calm Calm 1.0 mph1.6 kmh 30.17 in1021.7 mb 0.00 in0.0 mm 0.00 in/hr0.0 mm/hr 0.00 in0.0 mm
01:10 AM 53.7°F12.1°C 43.0°F6.1°C 67% 0.8 mph NE1.3 kmh NE 2.0 mph3.2 kmh 30.17 in1021.7 mb 0.00 in0.0 mm 0.00 in/hr0.0 mm/hr 0.00 in0.0 mm
01:00 AM 53.7°F12.1°C 43.0°F6.1°C 67% 0.9 mph ENE1.4 kmh ENE 1.0 mph1.6 kmh 30.17 in1021.7 mb 0.00 in0.0 mm 0.00 in/hr0.0 mm/hr 0.00 in0.0 mm
12:50 AM 53.5°F11.9°C 43.2°F6.2°C 68% 1.2 mph NE1.9 kmh NE 2.0 mph3.2 kmh 30.17 in1021.7 mb 0.00 in0.0 mm 0.00 in/hr0.0 mm/hr 0.00 in0.0 mm
12:40 AM 53.5°F11.9°C 42.8°F6.0°C 67% 1.2 mph NE1.9 kmh NE 3.0 mph4.8 kmh 30.17 in1021.7 mb 0.00 in0.0 mm 0.00 in/hr0.0 mm/hr 0.00 in0.0 mm
12:30 AM 53.5°F11.9°C 42.4°F5.8°C 66% 1.0 mph NE1.6 kmh NE 1.0 mph1.6 kmh 30.17 in1021.7 mb 0.00 in0.0 mm 0.00 in/hr0.0 mm/hr 0.00 in0.0 mm
12:20 AM 53.7°F12.1°C 42.2°F5.7°C 65% 0.7 mph NE1.1 kmh NE 2.0 mph3.2 kmh 30.17 in1021.7 mb 0.00 in0.0 mm 0.00 in/hr0.0 mm/hr 0.00 in0.0 mm
12:10 AM 54.1°F12.3°C 42.6°F5.9°C 65% 0.6 mph NE1.0 kmh NE 2.0 mph3.2 kmh 30.17 in1021.7 mb 0.00 in0.0 mm 0.00 in/hr0.0 mm/hr 0.00 in0.0 mm
12:00 AM 54.5°F12.5°C 43.0°F6.1°C 65% 0.8 mph NE1.3 kmh NE 2.0 mph3.2 kmh 30.17 in1021.7 mb 0.00 in0.0 mm 0.00 in/hr0.0 mm/hr 0.00 in0.0 mm